sensor_id;sensor_type;location;lat;lon;timestamp;P1;durP1;ratioP1;P2;durP2;ratioP2
47589;SDS011;33316;52.298;9.056;2023-01-08T00:00:54;3.88;;;1.85;;
47589;SDS011;33316;52.298;9.056;2023-01-08T00:03:21;2.88;;;1.75;;
47589;SDS011;33316;52.298;9.056;2023-01-08T00:05:48;3.13;;;1.80;;
47589;SDS011;33316;52.298;9.056;2023-01-08T00:08:15;2.42;;;1.77;;
47589;SDS011;33316;52.298;9.056;2023-01-08T00:10:41;2.35;;;1.77;;
47589;SDS011;33316;52.298;9.056;2023-01-08T00:13:08;4.75;;;1.70;;
47589;SDS011;33316;52.298;9.056;2023-01-08T00:15:36;2.75;;;1.80;;
47589;SDS011;33316;52.298;9.056;2023-01-08T00:18:03;2.47;;;1.70;;
47589;SDS011;33316;52.298;9.056;2023-01-08T00:20:30;2.85;;;2.10;;
47589;SDS011;33316;52.298;9.056;2023-01-08T00:22:57;3.58;;;2.00;;
47589;SDS011;33316;52.298;9.056;2023-01-08T00:25:24;2.92;;;1.85;;
47589;SDS011;33316;52.298;9.056;2023-01-08T00:27:51;4.32;;;1.90;;
47589;SDS011;33316;52.298;9.056;2023-01-08T00:30:18;2.90;;;1.75;;
47589;SDS011;33316;52.298;9.056;2023-01-08T00:32:46;2.13;;;1.40;;
47589;SDS011;33316;52.298;9.056;2023-01-08T00:35:13;3.00;;;2.05;;
47589;SDS011;33316;52.298;9.056;2023-01-08T00:37:39;3.05;;;1.80;;
47589;SDS011;33316;52.298;9.056;2023-01-08T00:40:07;3.38;;;1.55;;
47589;SDS011;33316;52.298;9.056;2023-01-08T00:42:34;2.58;;;1.83;;
47589;SDS011;33316;52.298;9.056;2023-01-08T00:45:01;2.30;;;1.55;;
47589;SDS011;33316;52.298;9.056;2023-01-08T00:47:28;2.10;;;1.55;;
47589;SDS011;33316;52.298;9.056;2023-01-08T00:49:57;3.72;;;1.63;;
47589;SDS011;33316;52.298;9.056;2023-01-08T00:52:24;3.85;;;1.80;;
47589;SDS011;33316;52.298;9.056;2023-01-08T00:54:51;2.65;;;1.67;;
47589;SDS011;33316;52.298;9.056;2023-01-08T00:57:18;2.72;;;1.77;;
47589;SDS011;33316;52.298;9.056;2023-01-08T00:59:45;2.60;;;1.35;;
47589;SDS011;33316;52.298;9.056;2023-01-08T01:02:12;2.45;;;1.52;;
47589;SDS011;33316;52.298;9.056;2023-01-08T01:04:39;2.30;;;1.50;;
47589;SDS011;33316;52.298;9.056;2023-01-08T01:07:07;2.38;;;1.60;;
47589;SDS011;33316;52.298;9.056;2023-01-08T01:09:34;2.80;;;1.67;;
47589;SDS011;33316;52.298;9.056;2023-01-08T01:12:01;1.52;;;1.20;;
47589;SDS011;33316;52.298;9.056;2023-01-08T01:14:27;2.85;;;1.55;;
47589;SDS011;33316;52.298;9.056;2023-01-08T01:16:54;3.65;;;1.48;;
47589;SDS011;33316;52.298;9.056;2023-01-08T01:19:21;2.30;;;1.40;;
47589;SDS011;33316;52.298;9.056;2023-01-08T01:21:48;1.52;;;1.20;;
47589;SDS011;33316;52.298;9.056;2023-01-08T01:24:16;2.28;;;1.40;;
47589;SDS011;33316;52.298;9.056;2023-01-08T01:26:42;2.10;;;1.50;;
47589;SDS011;33316;52.298;9.056;2023-01-08T01:29:09;2.03;;;1.17;;
47589;SDS011;33316;52.298;9.056;2023-01-08T01:31:36;2.10;;;1.60;;
47589;SDS011;33316;52.298;9.056;2023-01-08T01:34:02;1.52;;;1.20;;
47589;SDS011;33316;52.298;9.056;2023-01-08T01:36:29;1.70;;;1.20;;
47589;SDS011;33316;52.298;9.056;2023-01-08T01:38:56;1.40;;;1.00;;
47589;SDS011;33316;52.298;9.056;2023-01-08T01:41:26;2.47;;;1.25;;
47589;SDS011;33316;52.298;9.056;2023-01-08T01:43:54;2.08;;;1.27;;
47589;SDS011;33316;52.298;9.056;2023-01-08T01:46:27;2.53;;;1.50;;
47589;SDS011;33316;52.298;9.056;2023-01-08T01:49:02;3.33;;;1.42;;
47589;SDS011;33316;52.298;9.056;2023-01-08T01:51:33;2.92;;;1.42;;
47589;SDS011;33316;52.298;9.056;2023-01-08T01:54:01;2.47;;;1.40;;
47589;SDS011;33316;52.298;9.056;2023-01-08T01:56:31;2.25;;;1.58;;
47589;SDS011;33316;52.298;9.056;2023-01-08T01:58:59;2.47;;;1.30;;
47589;SDS011;33316;52.298;9.056;2023-01-08T02:01:26;2.45;;;1.58;;
47589;SDS011;33316;52.298;9.056;2023-01-08T02:03:53;1.35;;;1.10;;
47589;SDS011;33316;52.298;9.056;2023-01-08T02:06:24;3.20;;;1.73;;
47589;SDS011;33316;52.298;9.056;2023-01-08T02:09:00;2.47;;;1.15;;
47589;SDS011;33316;52.298;9.056;2023-01-08T02:11:33;2.10;;;1.10;;
47589;SDS011;33316;52.298;9.056;2023-01-08T02:14:07;1.48;;;1.10;;
47589;SDS011;33316;52.298;9.056;2023-01-08T02:16:45;2.05;;;1.50;;
47589;SDS011;33316;52.298;9.056;2023-01-08T02:19:21;2.42;;;1.40;;
47589;SDS011;33316;52.298;9.056;2023-01-08T02:21:58;1.92;;;1.33;;
47589;SDS011;33316;52.298;9.056;2023-01-08T02:24:35;1.90;;;1.35;;
47589;SDS011;33316;52.298;9.056;2023-01-08T02:27:13;2.08;;;1.30;;
47589;SDS011;33316;52.298;9.056;2023-01-08T02:29:42;2.22;;;1.40;;
47589;SDS011;33316;52.298;9.056;2023-01-08T02:32:09;2.05;;;1.40;;
47589;SDS011;33316;52.298;9.056;2023-01-08T02:34:37;3.13;;;1.40;;
47589;SDS011;33316;52.298;9.056;2023-01-08T02:37:03;2.13;;;1.10;;
47589;SDS011;33316;52.298;9.056;2023-01-08T02:39:35;1.60;;;1.13;;
47589;SDS011;33316;52.298;9.056;2023-01-08T02:42:15;1.08;;;0.98;;
47589;SDS011;33316;52.298;9.056;2023-01-08T02:44:56;3.25;;;0.95;;
47589;SDS011;33316;52.298;9.056;2023-01-08T02:47:29;1.00;;;0.90;;
47589;SDS011;33316;52.298;9.056;2023-01-08T02:50:00;1.53;;;1.10;;
47589;SDS011;33316;52.298;9.056;2023-01-08T02:52:35;1.30;;;1.00;;
47589;SDS011;33316;52.298;9.056;2023-01-08T02:55:07;1.15;;;0.82;;
47589;SDS011;33316;52.298;9.056;2023-01-08T02:57:37;1.13;;;0.88;;
47589;SDS011;33316;52.298;9.056;2023-01-08T03:00:05;1.58;;;1.25;;
47589;SDS011;33316;52.298;9.056;2023-01-08T03:02:33;1.98;;;1.10;;
47589;SDS011;33316;52.298;9.056;2023-01-08T03:05:05;1.63;;;1.10;;
47589;SDS011;33316;52.298;9.056;2023-01-08T03:07:38;1.77;;;1.30;;
47589;SDS011;33316;52.298;9.056;2023-01-08T03:10:05;1.10;;;0.90;;
47589;SDS011;33316;52.298;9.056;2023-01-08T03:12:35;1.50;;;0.98;;
47589;SDS011;33316;52.298;9.056;2023-01-08T03:15:13;1.10;;;1.00;;
47589;SDS011;33316;52.298;9.056;2023-01-08T03:17:47;1.80;;;1.20;;
47589;SDS011;33316;52.298;9.056;2023-01-08T03:20:16;1.38;;;1.10;;
47589;SDS011;33316;52.298;9.056;2023-01-08T03:22:46;1.37;;;0.90;;
47589;SDS011;33316;52.298;9.056;2023-01-08T03:25:16;1.80;;;1.13;;
47589;SDS011;33316;52.298;9.056;2023-01-08T03:27:47;1.63;;;0.93;;
47589;SDS011;33316;52.298;9.056;2023-01-08T03:30:17;1.48;;;1.05;;
47589;SDS011;33316;52.298;9.056;2023-01-08T03:32:45;1.77;;;0.90;;
47589;SDS011;33316;52.298;9.056;2023-01-08T03:35:14;2.58;;;1.10;;
47589;SDS011;33316;52.298;9.056;2023-01-08T03:37:45;2.20;;;1.20;;
47589;SDS011;33316;52.298;9.056;2023-01-08T03:40:18;1.55;;;0.82;;
47589;SDS011;33316;52.298;9.056;2023-01-08T03:45:16;1.50;;;0.93;;
47589;SDS011;33316;52.298;9.056;2023-01-08T03:47:44;1.83;;;1.02;;
47589;SDS011;33316;52.298;9.056;2023-01-08T03:50:13;2.15;;;0.98;;
47589;SDS011;33316;52.298;9.056;2023-01-08T03:52:44;1.67;;;1.00;;
47589;SDS011;33316;52.298;9.056;2023-01-08T03:55:10;1.65;;;1.00;;
47589;SDS011;33316;52.298;9.056;2023-01-08T03:57:37;1.25;;;0.80;;
47589;SDS011;33316;52.298;9.056;2023-01-08T04:00:06;1.60;;;0.90;;
47589;SDS011;33316;52.298;9.056;2023-01-08T04:02:33;1.83;;;1.08;;
47589;SDS011;33316;52.298;9.056;2023-01-08T04:05:00;1.33;;;1.10;;
47589;SDS011;33316;52.298;9.056;2023-01-08T04:07:27;1.90;;;1.30;;
47589;SDS011;33316;52.298;9.056;2023-01-08T04:09:53;0.90;;;0.60;;
47589;SDS011;33316;52.298;9.056;2023-01-08T04:12:20;1.20;;;0.73;;
47589;SDS011;33316;52.298;9.056;2023-01-08T04:14:48;2.08;;;1.10;;
47589;SDS011;33316;52.298;9.056;2023-01-08T04:17:16;1.38;;;0.95;;
47589;SDS011;33316;52.298;9.056;2023-01-08T04:19:43;3.28;;;0.95;;
47589;SDS011;33316;52.298;9.056;2023-01-08T04:22:10;1.83;;;0.98;;
47589;SDS011;33316;52.298;9.056;2023-01-08T04:24:37;1.15;;;0.80;;
47589;SDS011;33316;52.298;9.056;2023-01-08T04:27:03;1.00;;;0.70;;
47589;SDS011;33316;52.298;9.056;2023-01-08T04:29:30;1.10;;;0.90;;
47589;SDS011;33316;52.298;9.056;2023-01-08T04:31:58;0.95;;;0.70;;
47589;SDS011;33316;52.298;9.056;2023-01-08T04:34:26;1.30;;;0.88;;
47589;SDS011;33316;52.298;9.056;2023-01-08T04:36:53;1.55;;;0.80;;
47589;SDS011;33316;52.298;9.056;2023-01-08T04:39:19;0.88;;;0.77;;
47589;SDS011;33316;52.298;9.056;2023-01-08T04:41:46;1.15;;;0.80;;
47589;SDS011;33316;52.298;9.056;2023-01-08T04:44:13;1.00;;;0.80;;
47589;SDS011;33316;52.298;9.056;2023-01-08T04:46:40;1.55;;;0.88;;
47589;SDS011;33316;52.298;9.056;2023-01-08T04:49:06;1.65;;;1.00;;
47589;SDS011;33316;52.298;9.056;2023-01-08T04:51:34;1.80;;;1.25;;
47589;SDS011;33316;52.298;9.056;2023-01-08T04:54:01;1.52;;;0.80;;
47589;SDS011;33316;52.298;9.056;2023-01-08T04:56:28;2.28;;;1.00;;
47589;SDS011;33316;52.298;9.056;2023-01-08T04:58:55;1.60;;;0.90;;
47589;SDS011;33316;52.298;9.056;2023-01-08T05:01:24;3.20;;;1.30;;
47589;SDS011;33316;52.298;9.056;2023-01-08T05:03:52;1.95;;;1.10;;
47589;SDS011;33316;52.298;9.056;2023-01-08T05:06:19;1.50;;;1.02;;
47589;SDS011;33316;52.298;9.056;2023-01-08T05:08:47;1.60;;;1.20;;
47589;SDS011;33316;52.298;9.056;2023-01-08T05:11:14;1.40;;;1.17;;
47589;SDS011;33316;52.298;9.056;2023-01-08T05:13:41;1.88;;;1.10;;
47589;SDS011;33316;52.298;9.056;2023-01-08T05:16:08;3.10;;;1.52;;
47589;SDS011;33316;52.298;9.056;2023-01-08T05:18:35;1.30;;;1.10;;
47589;SDS011;33316;52.298;9.056;2023-01-08T05:21:02;1.65;;;1.13;;
47589;SDS011;33316;52.298;9.056;2023-01-08T05:23:30;1.23;;;1.10;;
47589;SDS011;33316;52.298;9.056;2023-01-08T05:26:00;2.15;;;1.50;;
47589;SDS011;33316;52.298;9.056;2023-01-08T05:28:27;2.60;;;1.40;;
47589;SDS011;33316;52.298;9.056;2023-01-08T05:30:55;1.60;;;1.30;;
47589;SDS011;33316;52.298;9.056;2023-01-08T05:33:22;2.40;;;1.50;;
47589;SDS011;33316;52.298;9.056;2023-01-08T05:35:49;2.00;;;1.15;;
47589;SDS011;33316;52.298;9.056;2023-01-08T05:38:16;2.08;;;1.33;;
47589;SDS011;33316;52.298;9.056;2023-01-08T05:40:43;2.63;;;1.50;;
47589;SDS011;33316;52.298;9.056;2023-01-08T05:43:11;1.77;;;1.20;;
47589;SDS011;33316;52.298;9.056;2023-01-08T05:45:38;1.90;;;1.45;;
47589;SDS011;33316;52.298;9.056;2023-01-08T05:48:05;1.42;;;1.23;;
47589;SDS011;33316;52.298;9.056;2023-01-08T05:50:33;3.42;;;1.50;;
47589;SDS011;33316;52.298;9.056;2023-01-08T05:53:00;1.90;;;1.38;;
47589;SDS011;33316;52.298;9.056;2023-01-08T05:55:31;2.17;;;1.30;;
47589;SDS011;33316;52.298;9.056;2023-01-08T05:57:59;2.00;;;1.50;;
47589;SDS011;33316;52.298;9.056;2023-01-08T06:00:28;3.60;;;2.20;;
47589;SDS011;33316;52.298;9.056;2023-01-08T06:02:55;2.90;;;2.03;;
47589;SDS011;33316;52.298;9.056;2023-01-08T06:05:22;2.70;;;1.98;;
47589;SDS011;33316;52.298;9.056;2023-01-08T06:07:49;2.45;;;1.70;;
47589;SDS011;33316;52.298;9.056;2023-01-08T06:10:16;2.20;;;1.50;;
47589;SDS011;33316;52.298;9.056;2023-01-08T06:12:42;1.90;;;1.50;;
47589;SDS011;33316;52.298;9.056;2023-01-08T06:15:10;2.53;;;1.50;;
47589;SDS011;33316;52.298;9.056;2023-01-08T06:17:39;1.60;;;1.23;;
47589;SDS011;33316;52.298;9.056;2023-01-08T06:20:06;2.45;;;1.30;;
47589;SDS011;33316;52.298;9.056;2023-01-08T06:22:34;1.98;;;1.20;;
47589;SDS011;33316;52.298;9.056;2023-01-08T06:25:01;1.80;;;1.20;;
47589;SDS011;33316;52.298;9.056;2023-01-08T06:27:28;1.23;;;1.05;;
47589;SDS011;33316;52.298;9.056;2023-01-08T06:29:55;3.33;;;1.20;;
47589;SDS011;33316;52.298;9.056;2023-01-08T06:32:22;1.90;;;1.20;;
47589;SDS011;33316;52.298;9.056;2023-01-08T06:34:50;1.92;;;1.10;;
47589;SDS011;33316;52.298;9.056;2023-01-08T06:37:17;1.98;;;1.15;;
47589;SDS011;33316;52.298;9.056;2023-01-08T06:39:43;2.28;;;1.17;;
47589;SDS011;33316;52.298;9.056;2023-01-08T06:42:10;2.97;;;1.40;;
47589;SDS011;33316;52.298;9.056;2023-01-08T06:44:37;1.60;;;1.10;;
47589;SDS011;33316;52.298;9.056;2023-01-08T06:47:04;2.10;;;1.30;;
47589;SDS011;33316;52.298;9.056;2023-01-08T06:49:30;2.08;;;1.25;;
47589;SDS011;33316;52.298;9.056;2023-01-08T06:51:58;1.63;;;1.20;;
47589;SDS011;33316;52.298;9.056;2023-01-08T06:54:25;1.58;;;1.05;;
47589;SDS011;33316;52.298;9.056;2023-01-08T06:56:52;2.10;;;1.20;;
47589;SDS011;33316;52.298;9.056;2023-01-08T06:59:18;1.40;;;1.30;;
47589;SDS011;33316;52.298;9.056;2023-01-08T07:01:45;2.15;;;1.33;;
47589;SDS011;33316;52.298;9.056;2023-01-08T07:04:12;1.80;;;1.17;;
47589;SDS011;33316;52.298;9.056;2023-01-08T07:06:39;1.77;;;1.38;;
47589;SDS011;33316;52.298;9.056;2023-01-08T07:09:07;1.90;;;1.30;;
47589;SDS011;33316;52.298;9.056;2023-01-08T07:11:36;1.75;;;1.10;;
47589;SDS011;33316;52.298;9.056;2023-01-08T07:14:03;1.70;;;1.30;;
47589;SDS011;33316;52.298;9.056;2023-01-08T07:16:30;2.13;;;1.13;;
47589;SDS011;33316;52.298;9.056;2023-01-08T07:18:57;1.73;;;1.23;;
47589;SDS011;33316;52.298;9.056;2023-01-08T07:21:23;3.15;;;1.33;;
47589;SDS011;33316;52.298;9.056;2023-01-08T07:23:50;1.70;;;1.27;;
47589;SDS011;33316;52.298;9.056;2023-01-08T07:26:18;1.70;;;1.20;;
47589;SDS011;33316;52.298;9.056;2023-01-08T07:28:45;1.52;;;1.30;;
47589;SDS011;33316;52.298;9.056;2023-01-08T07:31:12;3.50;;;1.13;;
47589;SDS011;33316;52.298;9.056;2023-01-08T07:33:39;2.28;;;1.50;;
47589;SDS011;33316;52.298;9.056;2023-01-08T07:36:06;2.00;;;1.40;;
47589;SDS011;33316;52.298;9.056;2023-01-08T07:38:33;2.78;;;1.38;;
47589;SDS011;33316;52.298;9.056;2023-01-08T07:41:00;2.35;;;1.52;;
47589;SDS011;33316;52.298;9.056;2023-01-08T07:43:28;1.30;;;1.15;;
47589;SDS011;33316;52.298;9.056;2023-01-08T07:45:55;2.15;;;1.10;;
47589;SDS011;33316;52.298;9.056;2023-01-08T07:48:21;1.75;;;1.10;;
47589;SDS011;33316;52.298;9.056;2023-01-08T07:50:48;1.98;;;1.20;;
47589;SDS011;33316;52.298;9.056;2023-01-08T07:53:15;2.42;;;1.40;;
47589;SDS011;33316;52.298;9.056;2023-01-08T07:55:42;1.27;;;1.00;;
47589;SDS011;33316;52.298;9.056;2023-01-08T07:58:09;1.65;;;1.23;;
47589;SDS011;33316;52.298;9.056;2023-01-08T08:00:39;1.73;;;1.30;;
47589;SDS011;33316;52.298;9.056;2023-01-08T08:03:06;1.70;;;1.35;;
47589;SDS011;33316;52.298;9.056;2023-01-08T08:05:35;4.28;;;1.55;;
47589;SDS011;33316;52.298;9.056;2023-01-08T08:08:06;1.40;;;1.23;;
47589;SDS011;33316;52.298;9.056;2023-01-08T08:10:33;1.73;;;1.27;;
47589;SDS011;33316;52.298;9.056;2023-01-08T08:13:00;3.05;;;1.27;;
47589;SDS011;33316;52.298;9.056;2023-01-08T08:15:26;2.35;;;1.40;;
47589;SDS011;33316;52.298;9.056;2023-01-08T08:17:54;1.83;;;1.15;;
47589;SDS011;33316;52.298;9.056;2023-01-08T08:20:21;1.70;;;1.27;;
47589;SDS011;33316;52.298;9.056;2023-01-08T08:22:48;2.17;;;1.20;;
47589;SDS011;33316;52.298;9.056;2023-01-08T08:25:15;2.13;;;1.30;;
47589;SDS011;33316;52.298;9.056;2023-01-08T08:27:42;1.55;;;1.10;;
47589;SDS011;33316;52.298;9.056;2023-01-08T08:30:10;2.03;;;0.90;;
47589;SDS011;33316;52.298;9.056;2023-01-08T08:32:37;1.30;;;0.90;;
47589;SDS011;33316;52.298;9.056;2023-01-08T08:35:06;1.73;;;1.00;;
47589;SDS011;33316;52.298;9.056;2023-01-08T08:37:33;1.95;;;1.10;;
47589;SDS011;33316;52.298;9.056;2023-01-08T08:40:00;2.35;;;1.08;;
47589;SDS011;33316;52.298;9.056;2023-01-08T08:42:27;4.05;;;2.00;;
47589;SDS011;33316;52.298;9.056;2023-01-08T08:44:53;4.60;;;2.42;;
47589;SDS011;33316;52.298;9.056;2023-01-08T08:47:20;2.08;;;1.10;;
47589;SDS011;33316;52.298;9.056;2023-01-08T08:49:47;1.42;;;1.05;;
47589;SDS011;33316;52.298;9.056;2023-01-08T08:52:15;2.40;;;1.20;;
47589;SDS011;33316;52.298;9.056;2023-01-08T08:54:42;1.73;;;0.85;;
47589;SDS011;33316;52.298;9.056;2023-01-08T08:57:09;1.20;;;0.80;;
47589;SDS011;33316;52.298;9.056;2023-01-08T08:59:36;2.00;;;0.80;;
47589;SDS011;33316;52.298;9.056;2023-01-08T09:02:03;0.93;;;0.73;;
47589;SDS011;33316;52.298;9.056;2023-01-08T09:04:30;1.17;;;0.85;;
47589;SDS011;33316;52.298;9.056;2023-01-08T09:06:58;1.02;;;0.60;;
47589;SDS011;33316;52.298;9.056;2023-01-08T09:09:29;0.80;;;0.60;;
47589;SDS011;33316;52.298;9.056;2023-01-08T09:11:58;1.20;;;0.80;;
47589;SDS011;33316;52.298;9.056;2023-01-08T09:14:29;1.08;;;0.75;;
47589;SDS011;33316;52.298;9.056;2023-01-08T09:16:56;2.45;;;1.00;;
47589;SDS011;33316;52.298;9.056;2023-01-08T09:19:22;1.98;;;1.20;;
47589;SDS011;33316;52.298;9.056;2023-01-08T09:21:52;1.63;;;1.00;;
47589;SDS011;33316;52.298;9.056;2023-01-08T09:24:18;1.33;;;0.77;;
47589;SDS011;33316;52.298;9.056;2023-01-08T09:26:46;1.85;;;0.70;;
47589;SDS011;33316;52.298;9.056;2023-01-08T09:29:15;1.00;;;0.70;;
47589;SDS011;33316;52.298;9.056;2023-01-08T09:31:44;1.77;;;0.82;;
47589;SDS011;33316;52.298;9.056;2023-01-08T09:34:13;1.45;;;0.98;;
47589;SDS011;33316;52.298;9.056;2023-01-08T09:36:41;1.30;;;0.90;;
47589;SDS011;33316;52.298;9.056;2023-01-08T09:39:08;1.08;;;0.80;;
47589;SDS011;33316;52.298;9.056;2023-01-08T09:41:35;1.45;;;0.73;;
47589;SDS011;33316;52.298;9.056;2023-01-08T09:44:13;0.65;;;0.60;;
47589;SDS011;33316;52.298;9.056;2023-01-08T09:49:14;0.50;;;0.40;;
47589;SDS011;33316;52.298;9.056;2023-01-08T09:51:49;1.13;;;0.40;;
47589;SDS011;33316;52.298;9.056;2023-01-08T09:54:19;0.70;;;0.40;;
47589;SDS011;33316;52.298;9.056;2023-01-08T09:56:52;0.43;;;0.30;;
47589;SDS011;33316;52.298;9.056;2023-01-08T09:59:21;1.25;;;0.60;;
47589;SDS011;33316;52.298;9.056;2023-01-08T10:04:20;0.40;;;0.30;;
47589;SDS011;33316;52.298;9.056;2023-01-08T10:06:49;0.50;;;0.28;;
47589;SDS011;33316;52.298;9.056;2023-01-08T10:09:20;0.30;;;0.30;;
47589;SDS011;33316;52.298;9.056;2023-01-08T10:11:50;0.30;;;0.30;;
47589;SDS011;33316;52.298;9.056;2023-01-08T10:14:24;0.82;;;0.60;;
47589;SDS011;33316;52.298;9.056;2023-01-08T10:16:56;0.68;;;0.50;;
47589;SDS011;33316;52.298;9.056;2023-01-08T10:19:31;1.15;;;0.80;;
47589;SDS011;33316;52.298;9.056;2023-01-08T10:21:57;1.77;;;1.13;;
47589;SDS011;33316;52.298;9.056;2023-01-08T10:24:31;3.22;;;1.75;;
47589;SDS011;33316;52.298;9.056;2023-01-08T10:27:06;3.90;;;1.92;;
47589;SDS011;33316;52.298;9.056;2023-01-08T10:29:35;3.47;;;1.38;;
47589;SDS011;33316;52.298;9.056;2023-01-08T10:32:08;4.38;;;2.00;;
47589;SDS011;33316;52.298;9.056;2023-01-08T10:34:44;4.88;;;2.20;;
47589;SDS011;33316;52.298;9.056;2023-01-08T10:37:16;4.13;;;2.20;;
47589;SDS011;33316;52.298;9.056;2023-01-08T10:39:55;2.47;;;1.38;;
47589;SDS011;33316;52.298;9.056;2023-01-08T10:42:35;1.10;;;0.65;;
47589;SDS011;33316;52.298;9.056;2023-01-08T10:45:05;0.50;;;0.40;;
47589;SDS011;33316;52.298;9.056;2023-01-08T10:47:47;0.60;;;0.50;;
47589;SDS011;33316;52.298;9.056;2023-01-08T10:50:18;1.17;;;0.32;;
47589;SDS011;33316;52.298;9.056;2023-01-08T10:52:51;0.30;;;0.30;;
47589;SDS011;33316;52.298;9.056;2023-01-08T10:55:23;0.50;;;0.40;;
47589;SDS011;33316;52.298;9.056;2023-01-08T10:57:52;1.13;;;0.55;;
47589;SDS011;33316;52.298;9.056;2023-01-08T11:00:23;1.45;;;0.70;;
47589;SDS011;33316;52.298;9.056;2023-01-08T11:02:51;2.00;;;0.70;;
47589;SDS011;33316;52.298;9.056;2023-01-08T11:05:18;0.90;;;0.50;;
47589;SDS011;33316;52.298;9.056;2023-01-08T11:07:54;0.80;;;0.45;;
47589;SDS011;33316;52.298;9.056;2023-01-08T11:10:24;0.80;;;0.50;;
47589;SDS011;33316;52.298;9.056;2023-01-08T11:12:55;0.80;;;0.57;;
47589;SDS011;33316;52.298;9.056;2023-01-08T11:15:29;1.15;;;0.52;;
47589;SDS011;33316;52.298;9.056;2023-01-08T11:18:05;0.60;;;0.30;;
47589;SDS011;33316;52.298;9.056;2023-01-08T11:20:44;1.30;;;0.40;;
47589;SDS011;33316;52.298;9.056;2023-01-08T11:23:16;0.98;;;0.30;;
47589;SDS011;33316;52.298;9.056;2023-01-08T11:25:47;3.40;;;0.60;;
47589;SDS011;33316;52.298;9.056;2023-01-08T11:28:22;2.17;;;0.50;;
47589;SDS011;33316;52.298;9.056;2023-01-08T11:30:57;1.27;;;0.50;;
47589;SDS011;33316;52.298;9.056;2023-01-08T11:33:33;1.73;;;0.50;;
47589;SDS011;33316;52.298;9.056;2023-01-08T11:36:02;1.35;;;0.40;;
47589;SDS011;33316;52.298;9.056;2023-01-08T11:38:36;0.95;;;0.40;;
47589;SDS011;33316;52.298;9.056;2023-01-08T11:41:06;1.23;;;0.50;;
47589;SDS011;33316;52.298;9.056;2023-01-08T11:43:43;1.10;;;0.40;;
47589;SDS011;33316;52.298;9.056;2023-01-08T11:46:31;2.25;;;0.60;;
47589;SDS011;33316;52.298;9.056;2023-01-08T11:49:08;2.53;;;0.55;;
47589;SDS011;33316;52.298;9.056;2023-01-08T11:51:50;0.82;;;0.40;;
47589;SDS011;33316;52.298;9.056;2023-01-08T11:54:42;2.72;;;0.52;;
47589;SDS011;33316;52.298;9.056;2023-01-08T11:57:23;1.77;;;0.60;;
47589;SDS011;33316;52.298;9.056;2023-01-08T12:00:08;2.20;;;0.57;;
47589;SDS011;33316;52.298;9.056;2023-01-08T12:02:49;4.65;;;1.63;;
47589;SDS011;33316;52.298;9.056;2023-01-08T12:05:21;6.15;;;1.40;;
47589;SDS011;33316;52.298;9.056;2023-01-08T12:07:56;3.17;;;0.88;;
47589;SDS011;33316;52.298;9.056;2023-01-08T12:10:29;3.38;;;1.27;;
47589;SDS011;33316;52.298;9.056;2023-01-08T12:13:09;1.35;;;0.60;;
47589;SDS011;33316;52.298;9.056;2023-01-08T12:15:49;3.80;;;0.50;;
47589;SDS011;33316;52.298;9.056;2023-01-08T12:21:15;1.45;;;0.40;;
47589;SDS011;33316;52.298;9.056;2023-01-08T12:24:04;3.63;;;1.35;;
47589;SDS011;33316;52.298;9.056;2023-01-08T12:26:42;1.90;;;0.90;;
47589;SDS011;33316;52.298;9.056;2023-01-08T12:29:17;1.52;;;0.60;;
47589;SDS011;33316;52.298;9.056;2023-01-08T12:31:57;2.47;;;0.60;;
47589;SDS011;33316;52.298;9.056;2023-01-08T12:34:40;1.05;;;0.40;;
47589;SDS011;33316;52.298;9.056;2023-01-08T12:37:16;0.75;;;0.50;;
47589;SDS011;33316;52.298;9.056;2023-01-08T12:39:49;3.83;;;0.50;;
47589;SDS011;33316;52.298;9.056;2023-01-08T12:42:20;1.25;;;0.47;;
47589;SDS011;33316;52.298;9.056;2023-01-08T12:44:52;1.95;;;0.47;;
47589;SDS011;33316;52.298;9.056;2023-01-08T12:47:23;2.17;;;0.47;;
47589;SDS011;33316;52.298;9.056;2023-01-08T12:49:55;2.25;;;0.60;;
47589;SDS011;33316;52.298;9.056;2023-01-08T12:52:31;3.33;;;0.70;;
47589;SDS011;33316;52.298;9.056;2023-01-08T12:55:08;1.05;;;0.45;;
47589;SDS011;33316;52.298;9.056;2023-01-08T12:57:48;2.70;;;0.50;;
47589;SDS011;33316;52.298;9.056;2023-01-08T13:00:23;3.40;;;0.50;;
47589;SDS011;33316;52.298;9.056;2023-01-08T13:02:55;3.38;;;0.80;;
47589;SDS011;33316;52.298;9.056;2023-01-08T13:05:30;4.32;;;1.45;;
47589;SDS011;33316;52.298;9.056;2023-01-08T13:07:58;3.78;;;0.82;;
47589;SDS011;33316;52.298;9.056;2023-01-08T13:10:31;1.95;;;0.47;;
47589;SDS011;33316;52.298;9.056;2023-01-08T13:13:01;1.08;;;0.65;;
47589;SDS011;33316;52.298;9.056;2023-01-08T13:15:30;1.92;;;0.50;;
47589;SDS011;33316;52.298;9.056;2023-01-08T13:17:59;2.30;;;0.57;;
47589;SDS011;33316;52.298;9.056;2023-01-08T13:20:33;2.20;;;0.60;;
47589;SDS011;33316;52.298;9.056;2023-01-08T13:23:00;3.10;;;0.70;;
47589;SDS011;33316;52.298;9.056;2023-01-08T13:25:30;1.83;;;0.50;;
47589;SDS011;33316;52.298;9.056;2023-01-08T13:27:58;2.28;;;0.70;;
47589;SDS011;33316;52.298;9.056;2023-01-08T13:30:33;2.17;;;0.80;;
47589;SDS011;33316;52.298;9.056;2023-01-08T13:36:20;1.77;;;0.40;;
47589;SDS011;33316;52.298;9.056;2023-01-08T13:39:02;2.03;;;0.47;;
47589;SDS011;33316;52.298;9.056;2023-01-08T13:41:31;2.83;;;0.60;;
47589;SDS011;33316;52.298;9.056;2023-01-08T13:43:59;3.50;;;0.98;;
47589;SDS011;33316;52.298;9.056;2023-01-08T13:46:29;2.33;;;0.50;;
47589;SDS011;33316;52.298;9.056;2023-01-08T13:48:58;2.88;;;0.80;;
47589;SDS011;33316;52.298;9.056;2023-01-08T13:51:29;1.48;;;0.52;;
47589;SDS011;33316;52.298;9.056;2023-01-08T13:54:00;1.90;;;0.63;;
47589;SDS011;33316;52.298;9.056;2023-01-08T13:56:38;1.67;;;0.77;;
47589;SDS011;33316;52.298;9.056;2023-01-08T13:59:05;2.30;;;0.80;;
47589;SDS011;33316;52.298;9.056;2023-01-08T14:01:50;1.13;;;0.55;;
47589;SDS011;33316;52.298;9.056;2023-01-08T14:04:18;1.40;;;0.80;;
47589;SDS011;33316;52.298;9.056;2023-01-08T14:06:47;1.98;;;0.70;;
47589;SDS011;33316;52.298;9.056;2023-01-08T14:09:18;2.95;;;1.63;;
47589;SDS011;33316;52.298;9.056;2023-01-08T14:11:47;4.32;;;1.00;;
47589;SDS011;33316;52.298;9.056;2023-01-08T14:14:19;1.65;;;0.90;;
47589;SDS011;33316;52.298;9.056;2023-01-08T14:16:48;3.22;;;0.85;;
47589;SDS011;33316;52.298;9.056;2023-01-08T14:19:17;2.28;;;1.00;;
47589;SDS011;33316;52.298;9.056;2023-01-08T14:21:47;1.58;;;0.80;;
47589;SDS011;33316;52.298;9.056;2023-01-08T14:24:15;3.85;;;0.90;;
47589;SDS011;33316;52.298;9.056;2023-01-08T14:26:49;1.13;;;0.50;;
47589;SDS011;33316;52.298;9.056;2023-01-08T14:29:18;1.23;;;0.45;;
47589;SDS011;33316;52.298;9.056;2023-01-08T14:31:47;0.90;;;0.40;;
47589;SDS011;33316;52.298;9.056;2023-01-08T14:34:16;1.97;;;0.70;;
47589;SDS011;33316;52.298;9.056;2023-01-08T14:36:44;3.42;;;0.68;;
47589;SDS011;33316;52.298;9.056;2023-01-08T14:39:20;1.10;;;0.55;;
47589;SDS011;33316;52.298;9.056;2023-01-08T14:41:48;2.17;;;0.82;;
47589;SDS011;33316;52.298;9.056;2023-01-08T14:44:33;2.13;;;0.70;;
47589;SDS011;33316;52.298;9.056;2023-01-08T14:47:01;1.00;;;0.60;;
47589;SDS011;33316;52.298;9.056;2023-01-08T14:49:29;0.70;;;0.30;;
47589;SDS011;33316;52.298;9.056;2023-01-08T14:51:58;0.45;;;0.30;;
47589;SDS011;33316;52.298;9.056;2023-01-08T14:54:30;1.38;;;0.40;;
47589;SDS011;33316;52.298;9.056;2023-01-08T14:57:05;1.15;;;0.40;;
47589;SDS011;33316;52.298;9.056;2023-01-08T14:59:32;0.47;;;0.30;;
47589;SDS011;33316;52.298;9.056;2023-01-08T15:02:05;0.68;;;0.40;;
47589;SDS011;33316;52.298;9.056;2023-01-08T15:04:59;1.92;;;0.40;;
47589;SDS011;33316;52.298;9.056;2023-01-08T15:07:29;1.17;;;0.50;;
47589;SDS011;33316;52.298;9.056;2023-01-08T15:09:59;1.45;;;0.80;;
47589;SDS011;33316;52.298;9.056;2023-01-08T15:12:29;1.38;;;0.70;;
47589;SDS011;33316;52.298;9.056;2023-01-08T15:15:09;1.52;;;0.52;;
47589;SDS011;33316;52.298;9.056;2023-01-08T15:17:37;0.90;;;0.50;;